createdAt,value
2022-09-12T00:01:28.756Z,17.81
2022-09-12T00:03:58.408Z,17.57
2022-09-12T00:06:32.351Z,18.04
2022-09-12T00:09:01.924Z,19.00
2022-09-12T00:11:42.386Z,19.61
2022-09-12T00:14:11.095Z,20.10
2022-09-12T00:16:39.572Z,20.42
2022-09-12T00:19:07.757Z,20.67
2022-09-12T00:21:36.843Z,20.85
2022-09-12T00:24:05.010Z,21.00
2022-09-12T00:26:32.978Z,20.98
2022-09-12T00:29:01.436Z,20.34
2022-09-12T00:31:29.574Z,19.64
2022-09-12T00:33:58.357Z,19.08
2022-09-12T00:36:31.381Z,18.60
2022-09-12T00:38:59.263Z,18.19
2022-09-12T00:41:37.931Z,17.88
2022-09-12T00:44:10.181Z,17.61
2022-09-12T00:46:45.067Z,17.42
2022-09-12T00:49:18.711Z,18.02
2022-09-12T00:51:50.900Z,19.01
2022-09-12T00:54:19.736Z,19.61
2022-09-12T00:56:47.700Z,20.00
2022-09-12T00:59:20.583Z,20.24
2022-09-12T01:01:49.702Z,20.47
2022-09-12T01:04:18.315Z,20.67
2022-09-12T01:06:46.572Z,20.98
2022-09-12T01:09:20.051Z,20.90
2022-09-12T01:11:48.652Z,20.17
2022-09-12T01:14:18.822Z,19.53
2022-09-12T01:16:47.067Z,19.01
2022-09-12T01:19:32.093Z,18.63
2022-09-12T01:22:09.606Z,18.24
2022-09-12T01:24:42.471Z,17.95
2022-09-12T01:27:19.470Z,17.74
2022-09-12T01:30:08.348Z,18.45
2022-09-12T01:32:39.290Z,19.48
2022-09-12T01:35:21.446Z,20.03
2022-09-12T01:37:53.787Z,20.49
2022-09-12T01:40:24.010Z,20.84
2022-09-12T01:43:32.226Z,21.06
2022-09-12T01:46:20.257Z,20.40
2022-09-12T01:48:51.269Z,19.66
2022-09-12T01:51:22.021Z,19.15
2022-09-12T01:53:52.446Z,18.74
2022-09-12T01:56:26.450Z,18.39
2022-09-12T01:59:09.174Z,18.08
2022-09-12T02:01:53.525Z,17.89
2022-09-12T02:04:22.676Z,18.61
2022-09-12T02:07:10.450Z,19.37
2022-09-12T02:09:40.354Z,20.03
2022-09-12T02:12:09.078Z,20.47
2022-09-12T02:14:38.272Z,20.78
2022-09-12T02:17:17.260Z,20.87
2022-09-12T02:19:58.845Z,20.25
2022-09-12T02:22:27.321Z,19.53
2022-09-12T02:24:59.194Z,19.03
2022-09-12T02:27:33.358Z,18.63
2022-09-12T02:30:01.294Z,18.26
2022-09-12T02:32:35.075Z,17.98
2022-09-12T02:35:09.111Z,17.87
2022-09-12T02:37:38.868Z,18.81
2022-09-12T02:40:09.005Z,19.79
2022-09-12T02:42:37.405Z,20.45
2022-09-12T02:45:05.403Z,20.90
2022-09-12T02:47:48.239Z,21.13
2022-09-12T02:50:16.254Z,20.52
2022-09-12T02:52:44.154Z,19.78
2022-09-12T02:55:14.394Z,19.22
2022-09-12T02:57:44.587Z,18.77
2022-09-12T03:00:13.050Z,18.40
2022-09-12T03:02:50.739Z,18.09
2022-09-12T03:05:27.927Z,18.01
2022-09-12T03:08:28.855Z,19.09
2022-09-12T03:10:59.808Z,20.16
2022-09-12T03:13:36.920Z,20.67
2022-09-12T03:16:18.321Z,21.03
2022-09-12T03:18:50.551Z,20.93
2022-09-12T03:21:21.690Z,20.18
2022-09-12T03:23:52.696Z,19.47
2022-09-12T03:26:23.167Z,18.94
2022-09-12T03:28:51.062Z,18.54
2022-09-12T03:31:19.181Z,18.18
2022-09-12T03:33:48.660Z,17.96
2022-09-12T03:36:17.533Z,18.75
2022-09-12T03:38:45.489Z,19.78
2022-09-12T03:41:13.614Z,20.40
2022-09-12T03:43:41.744Z,20.85
2022-09-12T03:46:09.928Z,21.11
2022-09-12T03:48:41.316Z,20.80
2022-09-12T03:51:10.019Z,20.03
2022-09-12T03:53:38.096Z,19.38
2022-09-12T03:56:09.325Z,18.88
2022-09-12T03:58:37.381Z,18.45
2022-09-12T04:01:12.584Z,18.09
2022-09-12T04:03:44.209Z,17.88
2022-09-12T04:06:15.546Z,18.71
2022-09-12T04:08:46.840Z,19.66
2022-09-12T04:11:15.588Z,20.27
2022-09-12T04:13:46.240Z,20.67
2022-09-12T04:16:17.698Z,20.95
2022-09-12T04:18:46.627Z,20.58
2022-09-12T04:21:16.554Z,19.81
2022-09-12T04:23:44.499Z,19.19
2022-09-12T04:26:14.672Z,18.73
2022-09-12T04:28:42.803Z,18.34
2022-09-12T04:31:18.183Z,18.04
2022-09-12T04:33:47.340Z,17.78
2022-09-12T04:36:17.759Z,17.65
2022-09-12T04:38:47.913Z,18.49
2022-09-12T04:41:18.519Z,19.58
2022-09-12T04:43:46.789Z,20.27
2022-09-12T04:46:16.748Z,20.71
2022-09-12T04:48:44.978Z,21.09
2022-09-12T04:51:14.895Z,21.09
2022-09-12T04:53:43.288Z,20.45
2022-09-12T04:56:11.523Z,19.80
2022-09-12T04:58:39.622Z,19.30
2022-09-12T05:01:08.310Z,18.92
2022-09-12T05:03:40.669Z,18.62
2022-09-12T05:06:17.623Z,18.36
2022-09-12T05:08:45.708Z,18.89
2022-09-12T05:11:15.452Z,19.87
2022-09-12T05:13:43.409Z,20.61
2022-09-12T05:16:13.010Z,21.11
2022-09-12T05:18:41.181Z,21.16
2022-09-12T05:21:09.593Z,20.50
2022-09-12T05:23:39.733Z,19.85
2022-09-12T05:26:12.286Z,19.35
2022-09-12T05:28:40.140Z,18.96
2022-09-12T05:31:16.754Z,18.65
2022-09-12T05:33:45.913Z,18.38
2022-09-12T05:36:15.402Z,18.18
2022-09-12T05:38:43.437Z,18.65
2022-09-12T05:41:17.483Z,19.72
2022-09-12T05:43:47.793Z,20.69
2022-09-12T05:46:18.987Z,21.36
2022-09-12T05:48:47.861Z,21.77
2022-09-12T05:51:20.564Z,21.36
2022-09-12T05:53:51.621Z,20.66
2022-09-12T05:56:21.161Z,20.13
2022-09-12T05:58:52.812Z,19.77
2022-09-12T06:01:21.557Z,19.51
2022-09-12T06:03:50.974Z,19.36
2022-09-12T06:06:19.763Z,19.21
2022-09-12T06:08:49.506Z,19.00
2022-09-12T06:11:20.551Z,18.82
2022-09-12T06:13:52.610Z,19.18
2022-09-12T06:16:28.396Z,20.30
2022-09-12T06:19:01.037Z,21.18
2022-09-12T06:21:30.823Z,21.81
2022-09-12T06:23:59.224Z,21.91
2022-09-12T06:26:27.989Z,21.30
2022-09-12T06:28:56.312Z,20.69
2022-09-12T06:31:26.148Z,20.22
2022-09-12T06:33:59.842Z,19.88
2022-09-12T06:36:29.918Z,19.60
2022-09-12T06:39:03.970Z,19.38
2022-09-12T06:41:32.349Z,19.31
2022-09-12T06:44:00.738Z,20.21
2022-09-12T06:46:28.898Z,21.31
2022-09-12T06:48:57.219Z,22.07
2022-09-12T06:51:29.253Z,21.95
2022-09-12T06:53:57.218Z,21.35
2022-09-12T06:56:28.843Z,20.82
2022-09-12T06:58:57.687Z,20.41
2022-09-12T07:01:27.451Z,20.14
2022-09-12T07:03:56.587Z,19.91
2022-09-12T07:06:30.113Z,19.81
2022-09-12T07:08:59.892Z,19.73
2022-09-12T07:11:31.852Z,19.67
2022-09-12T07:14:01.055Z,19.61
2022-09-12T07:16:30.386Z,19.54
2022-09-12T07:18:59.472Z,19.50
2022-09-12T07:21:30.027Z,19.55
2022-09-12T07:23:58.217Z,19.66
2022-09-12T07:26:29.239Z,20.27
2022-09-12T07:29:19.072Z,21.42
2022-09-12T07:31:50.429Z,22.10
2022-09-12T07:34:18.456Z,21.56
2022-09-12T07:36:46.386Z,20.99
2022-09-12T07:39:16.527Z,20.64
2022-09-12T07:41:44.577Z,20.47
2022-09-12T07:44:16.100Z,20.24
2022-09-12T07:46:44.011Z,20.03
2022-09-12T07:49:12.186Z,19.88
2022-09-12T07:51:40.903Z,19.78
2022-09-12T07:54:09.348Z,19.75
2022-09-12T07:56:39.591Z,19.73
2022-09-12T07:59:08.867Z,19.71
2022-09-12T08:01:39.494Z,19.72
2022-09-12T08:04:07.700Z,19.75
2022-09-12T08:06:36.498Z,19.79
2022-09-12T08:09:08.718Z,19.85
2022-09-12T08:11:36.652Z,19.87
2022-09-12T08:14:05.906Z,19.90
2022-09-12T08:16:34.768Z,19.89
2022-09-12T08:19:04.754Z,19.87
2022-09-12T08:21:34.780Z,19.85
2022-09-12T08:24:04.045Z,19.78
2022-09-12T08:26:33.969Z,19.78
2022-09-12T08:29:04.577Z,19.85
2022-09-12T08:31:36.605Z,20.00
2022-09-12T08:34:08.362Z,20.20
2022-09-12T08:36:36.395Z,20.36
2022-09-12T08:39:06.063Z,20.50
2022-09-12T08:41:37.772Z,20.60
2022-09-12T08:44:09.362Z,20.69
2022-09-12T08:46:46.074Z,20.76
2022-09-12T08:49:15.136Z,20.83
2022-09-12T08:51:43.063Z,21.00
2022-09-12T08:54:18.101Z,21.19
2022-09-12T08:56:48.003Z,21.34
2022-09-12T08:59:16.796Z,21.42
2022-09-12T09:01:45.632Z,21.42
2022-09-12T09:04:25.768Z,21.39
2022-09-12T09:07:04.762Z,21.31
2022-09-12T09:09:44.815Z,21.23
2022-09-12T09:12:25.082Z,21.37
2022-09-12T09:14:58.254Z,21.66
2022-09-12T09:17:28.104Z,21.77
2022-09-12T09:20:13.608Z,21.88
2022-09-12T09:22:43.887Z,22.12
2022-09-12T09:25:23.033Z,22.36
2022-09-12T09:28:15.537Z,22.68
2022-09-12T09:30:46.401Z,23.02
2022-09-12T09:33:22.719Z,23.16
2022-09-12T09:36:00.607Z,23.07
2022-09-12T09:38:37.872Z,22.94
2022-09-12T09:41:12.108Z,22.79
2022-09-12T09:43:40.129Z,22.83
2022-09-12T09:46:08.124Z,22.98
2022-09-12T09:48:36.635Z,23.18
2022-09-12T09:51:08.152Z,23.43
2022-09-12T09:53:39.075Z,23.68
2022-09-12T09:56:28.121Z,23.91
2022-09-12T09:58:56.269Z,23.93
2022-09-12T10:01:25.214Z,23.78
2022-09-12T10:03:55.483Z,23.78
2022-09-12T10:06:25.521Z,24.01
2022-09-12T10:09:05.280Z,24.19
2022-09-12T10:11:33.866Z,24.36
2022-09-12T10:14:03.167Z,24.65
2022-09-12T10:16:48.293Z,25.04
2022-09-12T10:19:43.293Z,25.50
2022-09-12T10:22:15.556Z,25.85
2022-09-12T10:24:47.072Z,25.85
2022-09-12T10:27:24.404Z,25.59
2022-09-12T10:30:15.642Z,25.24
2022-09-12T10:32:45.455Z,24.84
2022-09-12T10:35:21.317Z,24.61
2022-09-12T10:37:58.882Z,24.38
2022-09-12T10:40:32.908Z,24.20
2022-09-12T10:43:02.971Z,24.29
2022-09-12T10:45:32.331Z,24.49
2022-09-12T10:48:07.648Z,24.66
2022-09-12T10:50:42.042Z,24.88
2022-09-12T10:53:13.414Z,24.95
2022-09-12T10:55:42.077Z,25.02
2022-09-12T10:58:43.308Z,25.23
2022-09-12T11:01:17.877Z,25.50
2022-09-12T11:03:50.483Z,25.67
2022-09-12T11:06:22.067Z,25.55
2022-09-12T11:09:00.851Z,25.30
2022-09-12T11:11:49.263Z,25.01
2022-09-12T11:14:17.530Z,24.77
2022-09-12T11:16:49.343Z,24.65
2022-09-12T11:19:35.670Z,24.54
2022-09-12T11:22:05.779Z,24.43
2022-09-12T11:24:37.335Z,24.39
2022-09-12T11:27:14.844Z,24.36
2022-09-12T11:29:48.711Z,24.34
2022-09-12T11:32:36.489Z,24.37
2022-09-12T11:35:15.134Z,24.36
2022-09-12T11:38:00.771Z,24.28
2022-09-12T11:40:45.130Z,24.19
2022-09-12T11:43:22.279Z,24.16
2022-09-12T11:45:50.677Z,24.29
2022-09-12T11:48:26.759Z,24.59
2022-09-12T11:50:54.787Z,25.01
2022-09-12T11:53:26.320Z,25.43
2022-09-12T11:56:03.029Z,25.76
2022-09-12T11:58:30.986Z,26.09
2022-09-12T12:01:11.648Z,26.39
2022-09-12T12:03:43.970Z,26.68
2022-09-12T12:06:23.827Z,26.96
2022-09-12T12:08:54.022Z,27.21
2022-09-12T12:11:42.867Z,27.50
2022-09-12T12:14:24.181Z,27.82
2022-09-12T12:16:52.518Z,28.09
2022-09-12T12:19:25.199Z,28.22
2022-09-12T12:21:53.351Z,28.14
2022-09-12T12:24:25.892Z,28.10
2022-09-12T12:26:58.813Z,28.00
2022-09-12T12:29:27.239Z,27.90
2022-09-12T12:32:05.091Z,28.00
2022-09-12T12:34:36.491Z,28.01
2022-09-12T12:37:21.005Z,27.82
2022-09-12T12:39:55.868Z,27.42
2022-09-12T12:42:32.642Z,26.94
2022-09-12T12:45:11.808Z,26.45
2022-09-12T12:47:39.854Z,26.06
2022-09-12T12:50:20.796Z,25.69
2022-09-12T12:52:54.274Z,25.30
2022-09-12T12:55:31.369Z,25.00
2022-09-12T12:57:59.608Z,24.83
2022-09-12T13:00:39.706Z,24.70
2022-09-12T13:03:08.305Z,24.54
2022-09-12T13:05:47.989Z,24.41
2022-09-12T13:08:18.787Z,24.23
2022-09-12T13:10:53.698Z,24.13
2022-09-12T13:13:26.971Z,24.08
2022-09-12T13:15:56.461Z,24.10
2022-09-12T13:18:34.610Z,24.18
2022-09-12T13:21:02.600Z,24.27
2022-09-12T13:23:31.455Z,24.35
2022-09-12T13:26:01.550Z,24.41
2022-09-12T13:28:30.169Z,24.42
2022-09-12T13:31:12.577Z,24.39
2022-09-12T13:33:41.989Z,24.33
2022-09-12T13:36:10.352Z,24.29
2022-09-12T13:38:50.758Z,24.30
2022-09-12T13:41:37.315Z,24.24
2022-09-12T13:44:07.803Z,24.17
2022-09-12T13:46:38.915Z,24.15
2022-09-12T13:49:26.403Z,24.22
2022-09-12T13:51:58.616Z,24.32
2022-09-12T13:54:27.359Z,24.55
2022-09-12T13:56:58.619Z,24.97
2022-09-12T13:59:26.437Z,25.76
2022-09-12T14:01:54.306Z,26.34
2022-09-12T14:04:43.292Z,26.51
2022-09-12T14:07:20.393Z,26.48
2022-09-12T14:09:55.408Z,26.29
2022-09-12T14:12:34.942Z,26.01
2022-09-12T14:15:04.261Z,25.72
2022-09-12T14:17:33.556Z,25.48
2022-09-12T14:20:04.239Z,25.64
2022-09-12T14:22:33.098Z,26.04
2022-09-12T14:25:01.016Z,26.28
2022-09-12T14:27:30.446Z,26.21
2022-09-12T14:30:02.423Z,25.99
2022-09-12T14:32:31.199Z,25.74
2022-09-12T14:35:06.273Z,25.47
2022-09-12T14:37:34.728Z,25.17
2022-09-12T14:40:02.786Z,24.91
2022-09-12T14:42:31.289Z,24.65
2022-09-12T14:45:03.786Z,24.35
2022-09-12T14:47:35.187Z,24.08
2022-09-12T14:50:03.339Z,23.88
2022-09-12T14:52:35.388Z,23.72
2022-09-12T14:55:16.204Z,23.54
2022-09-12T14:57:46.777Z,23.40
2022-09-12T15:00:15.208Z,23.40
2022-09-12T15:02:43.504Z,23.51
2022-09-12T15:05:11.722Z,23.51
2022-09-12T15:07:46.507Z,23.44
2022-09-12T15:10:14.911Z,23.34
2022-09-12T15:12:45.934Z,23.19
2022-09-12T15:15:15.059Z,23.03
2022-09-12T15:17:43.639Z,22.90
2022-09-12T15:20:13.926Z,22.77
2022-09-12T15:22:42.109Z,22.65
2022-09-12T15:25:10.578Z,22.55
2022-09-12T15:27:43.311Z,22.49
2022-09-12T15:30:13.381Z,22.43
2022-09-12T15:32:42.582Z,22.34
2022-09-12T15:35:15.850Z,22.24
2022-09-12T15:37:46.182Z,22.14
2022-09-12T15:40:15.101Z,22.03
2022-09-12T15:42:44.319Z,21.92
2022-09-12T15:45:18.068Z,21.82
2022-09-12T15:47:48.494Z,21.72
2022-09-12T15:50:16.580Z,21.62
2022-09-12T15:52:44.696Z,21.52
2022-09-12T15:55:20.483Z,21.44
2022-09-12T15:57:48.756Z,21.36
2022-09-12T16:00:17.718Z,21.30
2022-09-12T16:02:46.763Z,21.22
2022-09-12T16:05:21.527Z,21.15
2022-09-12T16:07:51.000Z,21.09
2022-09-12T16:10:20.096Z,21.04
2022-09-12T16:12:48.391Z,20.98
2022-09-12T16:15:20.323Z,20.92
2022-09-12T16:17:49.251Z,20.88
2022-09-12T16:20:19.057Z,20.84
2022-09-12T16:22:47.252Z,20.79
2022-09-12T16:25:17.589Z,20.75
2022-09-12T16:27:49.318Z,20.71
2022-09-12T16:30:17.655Z,20.69
2022-09-12T16:32:46.487Z,20.66
2022-09-12T16:35:15.462Z,20.63
2022-09-12T16:37:43.482Z,20.59
2022-09-12T16:40:15.388Z,20.54
2022-09-12T16:42:44.387Z,20.47
2022-09-12T16:45:12.519Z,20.39
2022-09-12T16:47:40.474Z,20.31
2022-09-12T16:50:08.526Z,20.24
2022-09-12T16:52:36.612Z,20.16
2022-09-12T16:55:04.749Z,20.09
2022-09-12T16:57:33.290Z,20.00
2022-09-12T17:00:01.302Z,20.33
2022-09-12T17:02:33.480Z,21.52
2022-09-12T17:05:02.054Z,22.39
2022-09-12T17:07:30.145Z,22.92
2022-09-12T17:10:01.202Z,23.26
2022-09-12T17:12:31.426Z,22.93
2022-09-12T17:15:04.278Z,22.33
2022-09-12T17:17:32.143Z,21.78
2022-09-12T17:20:01.253Z,21.41
2022-09-12T17:22:29.616Z,21.11
2022-09-12T17:24:57.749Z,20.88
2022-09-12T17:27:25.694Z,20.68
2022-09-12T17:29:55.805Z,20.47
2022-09-12T17:32:24.347Z,20.27
2022-09-12T17:34:54.350Z,20.09
2022-09-12T17:37:22.200Z,19.93
2022-09-12T17:39:51.439Z,19.78
2022-09-12T17:42:20.854Z,19.61
2022-09-12T17:44:53.122Z,19.45
2022-09-12T17:47:21.260Z,19.47
2022-09-12T17:49:51.071Z,20.52
2022-09-12T17:52:19.086Z,21.59
2022-09-12T17:54:47.089Z,22.17
2022-09-12T17:57:15.777Z,22.48
2022-09-12T17:59:45.744Z,22.12
2022-09-12T18:02:16.771Z,21.47
2022-09-12T18:04:48.880Z,20.94
2022-09-12T18:07:19.297Z,20.54
2022-09-12T18:09:50.647Z,20.20
2022-09-12T18:12:21.950Z,19.89
2022-09-12T18:14:54.098Z,19.64
2022-09-12T18:17:31.213Z,19.39
2022-09-12T18:19:59.294Z,19.18
2022-09-12T18:22:28.781Z,18.99
2022-09-12T18:24:57.527Z,19.30
2022-09-12T18:27:27.476Z,20.43
2022-09-12T18:30:19.634Z,21.38
2022-09-12T18:32:44.794Z,22.07
2022-09-12T18:35:49.798Z,21.91
2022-09-12T18:38:21.098Z,21.04
2022-09-12T18:41:01.092Z,20.46
2022-09-12T18:43:38.681Z,19.97
2022-09-12T18:46:10.046Z,19.60
2022-09-12T18:48:41.016Z,19.29
2022-09-12T18:51:19.539Z,19.02
2022-09-12T18:53:53.759Z,18.76
2022-09-12T18:56:23.517Z,18.54
2022-09-12T18:58:59.545Z,18.93
2022-09-12T19:01:29.778Z,19.98
2022-09-12T19:03:58.183Z,20.61
2022-09-12T19:06:36.961Z,21.08
2022-09-12T19:09:08.195Z,21.45
2022-09-12T19:11:49.130Z,21.13
2022-09-12T19:14:42.855Z,20.40
2022-09-12T19:17:15.766Z,19.77
2022-09-12T19:19:49.518Z,19.38
2022-09-12T19:22:28.314Z,19.05
2022-09-12T19:25:03.177Z,18.75
2022-09-12T19:27:31.443Z,18.50
2022-09-12T19:30:03.996Z,18.25
2022-09-12T19:32:35.810Z,18.02
2022-09-12T19:35:05.800Z,17.83
2022-09-12T19:37:37.728Z,18.37
2022-09-12T19:40:11.214Z,19.67
2022-09-12T19:42:39.533Z,20.61
2022-09-12T19:45:11.241Z,21.15
2022-09-12T19:47:40.027Z,21.28
2022-09-12T19:50:12.631Z,20.60
2022-09-12T19:52:44.293Z,19.92
2022-09-12T19:55:27.460Z,19.36
2022-09-12T19:57:55.607Z,18.91
2022-09-12T20:00:31.664Z,18.56
2022-09-12T20:03:04.024Z,18.21
2022-09-12T20:05:32.601Z,17.94
2022-09-12T20:08:03.988Z,17.71
2022-09-12T20:10:32.245Z,18.14
2022-09-12T20:13:05.541Z,19.47
2022-09-12T20:15:36.015Z,20.43
2022-09-12T20:18:04.119Z,20.82
2022-09-12T20:20:37.657Z,20.25
2022-09-12T20:23:07.472Z,19.51
2022-09-12T20:25:37.780Z,18.98
2022-09-12T20:28:08.365Z,18.57
2022-09-12T20:30:36.744Z,18.23
2022-09-12T20:33:04.958Z,17.96
2022-09-12T20:35:34.165Z,17.70
2022-09-12T20:38:02.054Z,17.45
2022-09-12T20:40:36.014Z,17.24
2022-09-12T20:43:04.404Z,17.05
2022-09-12T20:45:40.339Z,16.89
2022-09-12T20:48:25.552Z,16.92
2022-09-12T20:54:25.596Z,19.65
2022-09-12T21:01:20.895Z,19.44
2022-09-12T21:03:50.186Z,18.81
2022-09-12T21:06:18.603Z,18.30
2022-09-12T21:08:46.924Z,17.92
2022-09-12T21:11:19.116Z,17.62
2022-09-12T21:13:47.770Z,17.36
2022-09-12T21:16:21.447Z,17.12
2022-09-12T21:19:28.190Z,16.91
2022-09-12T21:22:00.529Z,16.68
2022-09-12T21:27:56.340Z,17.96
2022-09-12T21:30:24.379Z,19.00
2022-09-12T21:32:52.529Z,19.59
2022-09-12T21:35:21.501Z,19.70
2022-09-12T21:37:51.271Z,19.08
2022-09-12T21:40:19.459Z,18.43
2022-09-12T21:42:51.426Z,17.93
2022-09-12T21:45:19.434Z,17.53
2022-09-12T21:47:47.296Z,17.20
2022-09-12T21:50:15.250Z,16.92
2022-09-12T21:52:43.213Z,16.69
2022-09-12T21:55:12.138Z,16.48
2022-09-12T21:57:43.105Z,16.32
2022-09-12T22:00:18.319Z,16.96
2022-09-12T22:02:48.765Z,18.09
2022-09-12T22:05:20.081Z,19.00
2022-09-12T22:07:48.574Z,19.55
2022-09-12T22:10:16.741Z,19.63
2022-09-12T22:13:09.580Z,18.93
2022-09-12T22:15:40.861Z,18.05
2022-09-12T22:18:09.208Z,17.51
2022-09-12T22:20:40.041Z,17.11
2022-09-12T22:23:27.133Z,17.10
2022-09-12T22:30:23.703Z,19.16
2022-09-12T22:32:53.105Z,18.50
2022-09-12T22:35:21.064Z,17.87
2022-09-12T22:37:49.962Z,17.42
2022-09-12T22:40:17.975Z,17.07
2022-09-12T22:42:46.078Z,16.78
2022-09-12T22:45:14.308Z,16.54
2022-09-12T22:47:42.211Z,16.32
2022-09-12T22:50:09.991Z,16.13
2022-09-12T22:52:37.771Z,15.93
2022-09-12T22:55:06.785Z,15.73
2022-09-12T22:57:34.788Z,15.56
2022-09-12T23:00:03.879Z,15.89
2022-09-12T23:02:31.776Z,17.22
2022-09-12T23:04:59.814Z,18.36
2022-09-12T23:07:27.608Z,19.11
2022-09-12T23:09:57.173Z,18.97
2022-09-12T23:12:28.190Z,18.21
2022-09-12T23:14:55.894Z,17.58
2022-09-12T23:17:24.059Z,17.13
2022-09-12T23:19:52.874Z,16.76
2022-09-12T23:22:21.110Z,16.45
2022-09-12T23:24:48.871Z,16.20
2022-09-12T23:27:16.830Z,15.97
2022-09-12T23:29:45.794Z,15.78
2022-09-12T23:32:13.588Z,15.58
2022-09-12T23:34:41.303Z,15.40
2022-09-12T23:37:09.104Z,15.24
2022-09-12T23:39:36.878Z,15.08
2022-09-12T23:42:05.730Z,14.96
2022-09-12T23:44:33.687Z,14.86
2022-09-12T23:47:04.051Z,15.54
2022-09-12T23:49:31.878Z,16.97
2022-09-12T23:51:59.605Z,17.98
2022-09-12T23:54:27.405Z,18.64
2022-09-12T23:56:55.639Z,18.35
2022-09-12T23:59:26.086Z,17.60
